Monterey, IN (46960)

02:51 EST le 30 janvier 2015 (GMT -0500)
KINCULVE3 | Change Station
CLOSE
Current Station
Stations météorologiques personnelles
Location: Culver, IN
Altitude: 791 ft
Stations météo à proximité

Alt. 791 ft 41.23 °N, 86.42 °W | Updated 15 seconds ago

Couvert
Couvert
28.0 ° F
Paraît 18 ° F
N
11.4
Vent Variable Vent de NNO
Gusts 12.3 mph

Aujourd'hui
Haut(e) -- | Bas -- ° F
--% Risque de précip.
Hier
Haut(e) -- | Bas -- ° F
Precip. -- pouce
7:59 AM 6:00 PM
Lune gibbeuse croissante, 81% visible
Pression 30.29 pouce
Visibilité 10.0 Miles terrestres
Nuages Nuages épars 2400 ft
Nuageux 3200 ft
Couvert 6000 ft
Refroidissement éolien 18 ° F
Point de rosée 15 ° F
Humidité 58%
Précipitations 0.00 pouce
Profondeur de la couche neigeuse Non disponible.
UV 0.0 sur 12
Pollen .10 sur 12
Qualité de l'air Non disponible.
Flu Activity Non disponible.
METAR KOXI 300735Z AUTO 36019KT 10SM SCT024 BKN032 OVC060 M02/M11 A3029 RMK AO1

More Conditions Fewer Conditions

Pression 30.29 pouce
Visibilité 10.0 Miles terrestres
Nuages Nuages épars 2400 ft
Nuageux 3200 ft
Couvert 6000 ft
Refroidissement éolien 18 ° F
Point de rosée 15 ° F
Humidité 58%
Précipitations 0.00 pouce
Profondeur de la couche neigeuse Non disponible.
UV 0.0 sur 12
Pollen .10 sur 12
Qualité de l'air Non disponible.
Flu Activity Non disponible.
METAR KOXI 300735Z AUTO 36019KT 10SM SCT024 BKN032 OVC060 M02/M11 A3029 RMK AO1

More Conditions Fewer Conditions

10-Day Weather Forecast

Almanac

Astronomie

Jan. 30, 2015 Lever Coucher
Temps réel
Crépuscule civil
Crépuscule nautique
Crépuscule astronomique
Lune
Durée de lumière visible
Longueur du jour
Tomorrow will be .
, % of the Moon is Illuminated

Extrêmes aujourd'hui

State Highs State Lows

Community

WunderPhotos

Upload Photos

1,791,726 Photos téléchargées !

WunderBlogs® & News

Nearby

Qualité de l'air

  Qualité de l'air Indice de la qualité de l'air Polluant
Not available.

Épaisseur de neige

Station Depth Altitude

Activité sismique

Ville Distance Mag. Time & Date
Minimum magnitude displayed is 2.5.

Températures des eaux côtières

Lieu Température

Stations météo à proximité